createdAt,value
2023-01-17T00:00:42.033Z,3.8
2023-01-17T00:01:51.841Z,3.8
2023-01-17T00:03:01.961Z,3.7
2023-01-17T00:04:12.088Z,3.7
2023-01-17T00:05:22.522Z,3.7
2023-01-17T00:06:32.627Z,3.6
2023-01-17T00:07:42.432Z,3.7
2023-01-17T00:08:52.861Z,3.6
2023-01-17T00:10:02.681Z,3.6
2023-01-17T00:11:12.786Z,3.5
2023-01-17T00:12:22.909Z,3.6
2023-01-17T00:13:33.022Z,3.5
2023-01-17T00:14:42.160Z,3.5
2023-01-17T00:15:52.286Z,3.5
2023-01-17T00:17:02.398Z,3.5
2023-01-17T00:18:12.829Z,3.5
2023-01-17T00:19:22.633Z,3.5
2023-01-17T00:20:32.755Z,3.4
2023-01-17T00:21:42.869Z,3.4
2023-01-17T00:22:52.996Z,3.4
2023-01-17T00:24:03.121Z,3.3
2023-01-17T00:25:13.221Z,3.4
2023-01-17T00:26:23.662Z,3.3
2023-01-17T00:27:33.471Z,3.3
2023-01-17T00:28:43.579Z,3.4
2023-01-17T00:29:52.729Z,3.4
2023-01-17T00:32:13.258Z,3.4
2023-01-17T00:33:23.377Z,3.4
2023-01-17T00:34:33.189Z,3.4
2023-01-17T00:35:43.617Z,3.5
2023-01-17T00:36:53.738Z,3.5
2023-01-17T00:38:03.554Z,3.5
2023-01-17T00:39:13.665Z,3.5
2023-01-17T00:40:23.782Z,3.4
2023-01-17T00:41:34.211Z,3.4
2023-01-17T00:42:44.338Z,3.4
2023-01-17T00:43:54.139Z,3.5
2023-01-17T00:45:03.277Z,3.5
2023-01-17T00:46:13.388Z,3.5
2023-01-17T00:47:23.510Z,3.4
2023-01-17T00:48:33.629Z,3.4
2023-01-17T00:49:43.742Z,3.5
2023-01-17T00:50:54.174Z,3.5
2023-01-17T00:52:03.979Z,3.5
2023-01-17T00:53:14.102Z,3.5
2023-01-17T00:54:24.527Z,3.5
2023-01-17T00:55:34.335Z,3.5
2023-01-17T00:56:44.466Z,3.6
2023-01-17T00:57:54.585Z,3.6
2023-01-17T00:59:04.690Z,3.6
2023-01-17T01:00:13.830Z,3.6
2023-01-17T01:01:23.954Z,3.7
2023-01-17T01:02:34.064Z,3.7
2023-01-17T01:03:44.192Z,3.7
2023-01-17T01:04:54.299Z,3.7
2023-01-17T01:06:04.426Z,3.8
2023-01-17T01:07:14.863Z,3.8
2023-01-17T01:08:24.659Z,3.8
2023-01-17T01:09:35.091Z,3.8
2023-01-17T01:10:44.889Z,3.8
2023-01-17T01:11:55.025Z,3.8
2023-01-17T01:13:05.129Z,3.8
2023-01-17T01:14:15.561Z,3.9
2023-01-17T01:15:24.381Z,3.9
2023-01-17T01:16:34.504Z,3.9
2023-01-17T01:17:44.631Z,3.9
2023-01-17T01:18:54.735Z,3.9
2023-01-17T01:20:04.859Z,3.9
2023-01-17T01:21:15.286Z,3.9
2023-01-17T01:22:25.092Z,3.9
2023-01-17T01:23:35.213Z,3.9
2023-01-17T01:24:45.324Z,4
2023-01-17T01:25:55.451Z,3.9
2023-01-17T01:27:05.570Z,4
2023-01-17T01:28:15.990Z,4
2023-01-17T01:29:26.115Z,4
2023-01-17T01:30:34.940Z,4
2023-01-17T01:31:45.064Z,4
2023-01-17T01:32:55.170Z,4
2023-01-17T01:34:05.292Z,4
2023-01-17T01:35:15.418Z,4
2023-01-17T01:36:25.530Z,4
2023-01-17T01:37:35.650Z,4
2023-01-17T01:38:45.769Z,4
2023-01-17T01:39:55.874Z,4
2023-01-17T01:41:06.001Z,4
2023-01-17T01:43:26.244Z,4
2023-01-17T01:44:36.363Z,4.1
2023-01-17T01:45:45.492Z,4.1
2023-01-17T01:46:55.599Z,4.1
2023-01-17T01:48:05.736Z,4.1
2023-01-17T01:49:15.844Z,4.1
2023-01-17T01:50:24.975Z,4.1
2023-01-17T01:51:35.104Z,4.1
2023-01-17T01:52:45.212Z,4.2
2023-01-17T01:53:55.346Z,4.1
2023-01-17T01:55:05.453Z,4.2
2023-01-17T01:56:15.886Z,4.2
2023-01-17T01:57:25.697Z,4.2
2023-01-17T01:58:35.801Z,4.2
2023-01-17T01:59:45.930Z,4.2
2023-01-17T02:00:56.047Z,4.1
2023-01-17T02:02:06.175Z,4.2
2023-01-17T02:03:16.286Z,4.2
2023-01-17T02:04:26.405Z,4.3
2023-01-17T02:05:35.537Z,4.2
2023-01-17T02:06:45.659Z,4.2
2023-01-17T02:07:55.768Z,4.2
2023-01-17T02:09:05.898Z,4.2
2023-01-17T02:10:16.004Z,4.3
2023-01-17T02:11:26.130Z,4.3
2023-01-17T02:12:36.253Z,4.3
2023-01-17T02:13:46.666Z,4.3
2023-01-17T02:14:56.473Z,4.3
2023-01-17T02:16:06.601Z,4.3
2023-01-17T02:17:16.710Z,4.3
2023-01-17T02:18:26.837Z,4.3
2023-01-17T02:19:37.256Z,4.3
2023-01-17T02:20:46.404Z,4.3
2023-01-17T02:21:56.197Z,4.3
2023-01-17T02:23:06.320Z,4.2
2023-01-17T02:24:16.438Z,4.3
2023-01-17T02:25:26.873Z,4.3
2023-01-17T02:26:36.996Z,4.3
2023-01-17T02:27:46.793Z,4.3
2023-01-17T02:28:57.223Z,4.3
2023-01-17T02:30:07.029Z,4.3
2023-01-17T02:31:17.152Z,4.3
2023-01-17T02:32:27.571Z,4.3
2023-01-17T02:33:37.690Z,4.3
2023-01-17T02:34:47.806Z,4.3
2023-01-17T02:35:56.638Z,4.3
2023-01-17T02:37:06.763Z,4.3
2023-01-17T02:38:16.867Z,4.3
2023-01-17T02:39:26.990Z,4.2
2023-01-17T02:40:37.113Z,4.2
2023-01-17T02:41:47.534Z,4.1
2023-01-17T02:42:57.338Z,4.1
2023-01-17T02:44:07.466Z,4.1
2023-01-17T02:45:17.883Z,4.1
2023-01-17T02:47:38.386Z,4
2023-01-17T02:48:47.934Z,3.9
2023-01-17T02:49:58.369Z,3.9
2023-01-17T02:51:07.499Z,4
2023-01-17T02:52:17.623Z,3.9
2023-01-17T02:53:27.744Z,3.9
2023-01-17T02:54:37.850Z,4
2023-01-17T02:55:47.975Z,3.9
2023-01-17T02:56:57.772Z,3.9
2023-01-17T02:58:07.896Z,4
2023-01-17T02:59:18.019Z,4
2023-01-17T03:00:28.124Z,3.9
2023-01-17T03:01:38.257Z,3.9
2023-01-17T03:02:48.676Z,3.9
2023-01-17T03:03:58.796Z,3.9
2023-01-17T03:05:08.907Z,4
2023-01-17T03:06:18.059Z,3.9
2023-01-17T03:07:28.163Z,3.9
2023-01-17T03:08:38.283Z,3.9
2023-01-17T03:09:48.096Z,3.9
2023-01-17T03:10:58.222Z,3.9
2023-01-17T03:12:08.332Z,4
2023-01-17T03:13:18.452Z,3.9
2023-01-17T03:14:28.557Z,3.9
2023-01-17T03:15:38.684Z,4
2023-01-17T03:16:48.808Z,4
2023-01-17T03:17:59.225Z,4
2023-01-17T03:19:09.040Z,4
2023-01-17T03:20:19.470Z,4
2023-01-17T03:21:29.272Z,3.9
2023-01-17T03:22:38.979Z,4
2023-01-17T03:23:48.842Z,4
2023-01-17T03:24:58.950Z,4
2023-01-17T03:26:09.075Z,4
2023-01-17T03:27:18.875Z,4
2023-01-17T03:28:29.000Z,4
2023-01-17T03:29:39.429Z,4
2023-01-17T03:30:49.552Z,4
2023-01-17T03:31:59.349Z,4
2023-01-17T03:33:09.478Z,4
2023-01-17T03:34:19.584Z,4.1
2023-01-17T03:35:29.711Z,4
2023-01-17T03:36:40.134Z,4
2023-01-17T03:37:49.267Z,4
2023-01-17T03:38:59.392Z,4
2023-01-17T03:40:09.208Z,4
2023-01-17T03:41:19.635Z,4
2023-01-17T03:42:29.436Z,4
2023-01-17T03:43:39.854Z,4
2023-01-17T03:44:49.974Z,4
2023-01-17T03:45:59.783Z,4
2023-01-17T03:47:09.907Z,4
2023-01-17T03:48:20.339Z,3.9
2023-01-17T03:49:30.462Z,4
2023-01-17T03:50:40.568Z,4
2023-01-17T03:51:50.683Z,4
2023-01-17T03:52:59.517Z,4
2023-01-17T03:54:09.634Z,4
2023-01-17T03:55:19.750Z,4
2023-01-17T03:56:29.866Z,4.1
2023-01-17T03:57:40.296Z,4.1
2023-01-17T03:58:50.420Z,4.1
2023-01-17T04:00:00.222Z,4.1
2023-01-17T04:01:10.347Z,4.1
2023-01-17T04:02:20.761Z,4.1
2023-01-17T04:03:30.885Z,4.1
2023-01-17T04:04:40.700Z,4.1
2023-01-17T04:05:50.824Z,4.1
2023-01-17T04:07:00.925Z,4.1
2023-01-17T04:08:11.183Z,4.1
2023-01-17T04:09:21.285Z,4.1
2023-01-17T04:10:31.709Z,4.2
2023-01-17T04:11:41.531Z,4.1
2023-01-17T04:12:51.953Z,4.1
2023-01-17T04:14:01.762Z,4.2
2023-01-17T04:15:11.874Z,4.2
2023-01-17T04:16:21.994Z,4.2
2023-01-17T04:17:32.424Z,4.1
2023-01-17T04:18:42.550Z,4.2
2023-01-17T04:19:52.670Z,4.2
2023-01-17T04:21:02.463Z,4.2
2023-01-17T04:22:12.581Z,4.2
2023-01-17T04:23:22.026Z,4.2
2023-01-17T04:24:31.836Z,4.2
2023-01-17T04:25:41.962Z,4.3
2023-01-17T04:26:52.085Z,4.2
2023-01-17T04:28:02.497Z,4.2
2023-01-17T04:29:12.325Z,4.2
2023-01-17T04:30:22.742Z,4.2
2023-01-17T04:31:32.552Z,4.2
2023-01-17T04:32:42.674Z,4.3
2023-01-17T04:33:53.098Z,4.2
2023-01-17T04:35:02.911Z,4.3
2023-01-17T04:36:13.029Z,4.2
2023-01-17T04:37:23.133Z,4.2
2023-01-17T04:38:32.269Z,4.2
2023-01-17T04:39:42.392Z,4.2
2023-01-17T04:40:52.509Z,4.2
2023-01-17T04:42:02.629Z,4.2
2023-01-17T04:44:23.173Z,4.2
2023-01-17T04:45:32.985Z,4.2
2023-01-17T04:46:43.110Z,4.2
2023-01-17T04:47:53.213Z,4.2
2023-01-17T04:49:03.340Z,4.3
2023-01-17T04:50:13.449Z,4.2
2023-01-17T04:51:23.878Z,4.3
2023-01-17T04:52:34.006Z,4.2
2023-01-17T04:53:43.145Z,4.3
2023-01-17T04:54:52.939Z,4.3
2023-01-17T04:56:03.625Z,4.4
2023-01-17T04:57:13.177Z,4.3
2023-01-17T04:58:23.300Z,4.3
2023-01-17T04:59:33.421Z,4.3
2023-01-17T05:00:43.842Z,4.3
2023-01-17T05:01:53.649Z,4.3
2023-01-17T05:03:04.086Z,4.3
2023-01-17T05:04:13.888Z,4.3
2023-01-17T05:05:24.315Z,4.2
2023-01-17T05:06:34.128Z,4.3
2023-01-17T05:07:44.547Z,4.3
2023-01-17T05:08:53.679Z,4.3
2023-01-17T05:10:03.509Z,4.3
2023-01-17T05:11:13.618Z,4.4
2023-01-17T05:12:24.044Z,4.4
2023-01-17T05:13:33.853Z,4.3
2023-01-17T05:14:43.969Z,4.3
2023-01-17T05:15:54.399Z,4.4
2023-01-17T05:19:24.754Z,4.4
2023-01-17T05:20:34.553Z,4.4
2023-01-17T05:21:44.690Z,4.4
2023-01-17T05:22:55.103Z,4.4
2023-01-17T05:24:04.233Z,4.3
2023-01-17T05:25:14.057Z,4.3
2023-01-17T05:26:24.159Z,4.4
2023-01-17T05:27:34.282Z,4.4
2023-01-17T05:28:44.408Z,4.4
2023-01-17T05:29:54.513Z,4.4
2023-01-17T05:31:04.634Z,4.4
2023-01-17T05:32:14.761Z,4.4
2023-01-17T05:33:24.883Z,4.4
2023-01-17T05:34:34.991Z,4.4
2023-01-17T05:35:45.112Z,4.3
2023-01-17T05:36:55.231Z,4.4
2023-01-17T05:38:05.666Z,4.4
2023-01-17T05:39:14.477Z,4.4
2023-01-17T05:40:24.900Z,4.4
2023-01-17T05:41:35.029Z,4.4
2023-01-17T05:42:44.839Z,4.5
2023-01-17T05:43:55.255Z,4.5
2023-01-17T05:45:04.393Z,4.5
2023-01-17T05:46:14.205Z,4.5
2023-01-17T05:47:24.330Z,4.5
2023-01-17T05:48:34.000Z,4.5
2023-01-17T05:49:44.867Z,4.4
2023-01-17T05:50:54.689Z,4.4
2023-01-17T05:52:04.813Z,4.4
2023-01-17T05:53:14.918Z,4.5
2023-01-17T05:54:25.039Z,4.4
2023-01-17T05:55:35.161Z,4.5
2023-01-17T05:56:45.267Z,4.4
2023-01-17T05:57:55.396Z,4.4
2023-01-17T05:59:05.827Z,4.4
2023-01-17T06:00:14.657Z,4.5
2023-01-17T06:01:24.765Z,4.5
2023-01-17T06:02:34.876Z,4.5
2023-01-17T06:03:44.998Z,4.5
2023-01-17T06:04:55.116Z,4.5
2023-01-17T06:06:05.243Z,4.5
2023-01-17T06:07:15.348Z,4.5
2023-01-17T06:08:25.469Z,4.4
2023-01-17T06:09:35.593Z,4.5
2023-01-17T06:10:45.701Z,4.5
2023-01-17T06:11:55.826Z,4.5
2023-01-17T06:13:06.261Z,4.5
2023-01-17T06:14:16.071Z,4.6
2023-01-17T06:15:25.206Z,4.6
2023-01-17T06:16:35.320Z,4.6
2023-01-17T06:17:45.749Z,4.6
2023-01-17T06:18:55.563Z,4.6
2023-01-17T06:20:05.665Z,4.6
2023-01-17T06:21:15.788Z,4.5
2023-01-17T06:22:26.206Z,4.5
2023-01-17T06:23:36.028Z,4.5
2023-01-17T06:24:46.135Z,4.4
2023-01-17T06:25:56.263Z,4.4
2023-01-17T06:27:06.380Z,4.4
2023-01-17T06:28:16.498Z,4.5
2023-01-17T06:29:26.614Z,4.5
2023-01-17T06:30:35.760Z,4.5
2023-01-17T06:31:45.864Z,4.4
2023-01-17T06:32:55.982Z,4.4
2023-01-17T06:34:06.410Z,4.5
2023-01-17T06:36:26.651Z,4.4
2023-01-17T06:37:36.454Z,4.5
2023-01-17T06:38:46.568Z,4.4
2023-01-17T06:39:56.696Z,4.4
2023-01-17T06:41:06.821Z,4.4
2023-01-17T06:42:16.938Z,4.5
2023-01-17T06:43:27.042Z,4.5
2023-01-17T06:44:37.473Z,4.4
2023-01-17T06:45:46.293Z,4.4
2023-01-17T06:46:56.415Z,4.5
2023-01-17T06:48:06.848Z,4.5
2023-01-17T06:49:16.663Z,4.6
2023-01-17T06:50:26.784Z,4.6
2023-01-17T06:51:36.890Z,4.6
2023-01-17T06:52:47.009Z,4.5
2023-01-17T06:53:57.125Z,4.5
2023-01-17T06:55:07.253Z,4.5
2023-01-17T06:57:27.480Z,4.5
2023-01-17T06:58:37.611Z,4.5
2023-01-17T06:59:48.027Z,4.5
2023-01-17T07:00:56.863Z,4.5
2023-01-17T07:02:06.974Z,4.4
2023-01-17T07:03:17.081Z,4.4
2023-01-17T07:04:27.204Z,4.5
2023-01-17T07:05:37.326Z,4.5
2023-01-17T07:06:47.000Z,4.4
2023-01-17T07:07:57.572Z,4.5
2023-01-17T07:09:07.678Z,4.5
2023-01-17T07:10:17.805Z,4.5
2023-01-17T07:11:27.910Z,4.5
2023-01-17T07:12:38.035Z,4.5
2023-01-17T07:13:48.156Z,4.5
2023-01-17T07:14:58.263Z,4.6
2023-01-17T07:16:07.396Z,4.6
2023-01-17T07:17:17.527Z,4.6
2023-01-17T07:18:27.634Z,4.5
2023-01-17T07:19:38.061Z,4.5
2023-01-17T07:20:47.879Z,4.5
2023-01-17T07:21:57.986Z,4.5
2023-01-17T07:23:08.104Z,4.5
2023-01-17T07:25:28.350Z,4.5
2023-01-17T07:26:38.762Z,4.5
2023-01-17T07:27:48.594Z,4.6
2023-01-17T07:28:58.698Z,4.6
2023-01-17T07:30:08.825Z,4.6
2023-01-17T07:32:28.377Z,4.6
2023-01-17T07:33:38.505Z,4.7
2023-01-17T07:34:48.310Z,4.6
2023-01-17T07:35:58.435Z,4.7
2023-01-17T07:37:08.845Z,4.6
2023-01-17T07:38:18.662Z,4.6
2023-01-17T07:39:28.774Z,4.6
2023-01-17T07:40:38.892Z,4.6
2023-01-17T07:41:49.013Z,4.7
2023-01-17T07:42:59.137Z,4.6
2023-01-17T07:44:09.555Z,4.7
2023-01-17T07:46:29.483Z,4.7
2023-01-17T07:47:38.629Z,4.7
2023-01-17T07:48:47.762Z,4.7
2023-01-17T07:49:57.883Z,4.7
2023-01-17T07:51:08.000Z,4.8
2023-01-17T07:53:28.248Z,4.7
2023-01-17T07:54:38.365Z,4.7
2023-01-17T07:55:48.470Z,4.7
2023-01-17T07:56:58.596Z,4.7
2023-01-17T07:58:09.012Z,4.7
2023-01-17T07:59:18.835Z,4.9
2023-01-17T08:00:27.975Z,4.8
2023-01-17T08:01:37.102Z,4.7
2023-01-17T08:02:47.221Z,4.7
2023-01-17T08:03:57.649Z,4.7
2023-01-17T08:05:07.768Z,4.6
2023-01-17T08:06:17.583Z,4.7
2023-01-17T08:07:28.011Z,4.7
2023-01-17T08:08:38.133Z,4.7
2023-01-17T08:09:47.939Z,4.6
2023-01-17T08:10:58.048Z,4.6
2023-01-17T08:12:08.178Z,4.6
2023-01-17T08:13:17.308Z,4.6
2023-01-17T08:14:26.444Z,4.6
2023-01-17T08:15:36.575Z,4.5
2023-01-17T08:16:46.681Z,4.4
2023-01-17T08:17:56.807Z,4.5
2023-01-17T08:19:07.222Z,4.5
2023-01-17T08:21:27.162Z,4.5
2023-01-17T08:22:37.269Z,4.5
2023-01-17T08:23:47.707Z,4.5
2023-01-17T08:24:57.821Z,4.5
2023-01-17T08:26:07.628Z,4.6
2023-01-17T08:27:17.751Z,4.6
2023-01-17T08:28:28.184Z,4.6
2023-01-17T08:29:37.010Z,4.6
2023-01-17T08:30:47.113Z,4.6
2023-01-17T08:31:57.233Z,4.7
2023-01-17T08:33:07.671Z,4.6
2023-01-17T08:34:17.482Z,4.6
2023-01-17T08:35:27.899Z,4.5
2023-01-17T08:36:38.024Z,4.5
2023-01-17T08:37:48.130Z,4.5
2023-01-17T08:38:56.981Z,4.5
2023-01-17T08:40:06.111Z,4.5
2023-01-17T08:41:16.217Z,4.6
2023-01-17T08:42:26.346Z,4.6
2023-01-17T08:43:36.472Z,4.6
2023-01-17T08:44:46.878Z,4.5
2023-01-17T08:45:56.708Z,4.5
2023-01-17T08:47:06.822Z,4.6
2023-01-17T08:49:27.354Z,4.5
2023-01-17T08:50:37.180Z,4.6
2023-01-17T08:51:47.298Z,4.6
2023-01-17T08:52:57.399Z,4.5
2023-01-17T08:54:07.520Z,4.5
2023-01-17T08:55:16.658Z,4.4
2023-01-17T08:56:26.777Z,4.6
2023-01-17T08:57:36.897Z,4.6
2023-01-17T08:58:47.018Z,4.5
2023-01-17T08:59:57.129Z,4.6
2023-01-17T09:01:07.245Z,4.6
2023-01-17T09:02:17.378Z,4.6
2023-01-17T09:03:27.488Z,4.6
2023-01-17T09:04:37.612Z,4.6
2023-01-17T09:05:47.715Z,4.5
2023-01-17T09:06:57.841Z,4.5
2023-01-17T09:08:08.262Z,4.5
2023-01-17T09:10:28.193Z,4.4
2023-01-17T09:11:37.324Z,4.4
2023-01-17T09:12:47.748Z,4.4
2023-01-17T09:13:57.574Z,4.4
2023-01-17T09:15:07.676Z,4.3
2023-01-17T09:17:27.924Z,4.3
2023-01-17T09:18:38.042Z,4.1
2023-01-17T09:19:48.146Z,4.1
2023-01-17T09:20:58.571Z,4.1
2023-01-17T09:22:08.390Z,4
2023-01-17T09:23:18.519Z,4
2023-01-17T09:24:28.622Z,4
2023-01-17T09:25:38.744Z,4
2023-01-17T09:26:47.886Z,3.8
2023-01-17T09:29:08.118Z,3.8
2023-01-17T09:30:17.253Z,3.7
2023-01-17T09:31:26.391Z,3.7
2023-01-17T09:32:36.521Z,3.8
2023-01-17T09:33:46.630Z,3.8
2023-01-17T09:34:56.753Z,3.8
2023-01-17T09:36:07.167Z,3.8
2023-01-17T09:37:16.985Z,3.7
2023-01-17T09:38:27.097Z,3.9
2023-01-17T09:39:36.246Z,3.8
2023-01-17T09:40:46.659Z,3.8
2023-01-17T09:41:56.475Z,3.7
2023-01-17T09:43:05.629Z,3.8
2023-01-17T09:44:14.750Z,3.9
2023-01-17T09:45:24.875Z,3.9
2023-01-17T09:46:35.000Z,3.9
2023-01-17T09:47:45.106Z,3.9
2023-01-17T09:48:55.528Z,3.9
2023-01-17T09:50:05.359Z,3.9
2023-01-17T09:52:25.586Z,4
2023-01-17T09:53:35.709Z,4.1
2023-01-17T09:54:46.117Z,4.2
2023-01-17T09:55:56.242Z,4.2
2023-01-17T09:57:06.062Z,4.1
2023-01-17T09:59:26.291Z,4.2
2023-01-17T10:00:35.445Z,4.2
2023-01-17T10:01:44.564Z,4.3
2023-01-17T10:02:54.693Z,4.3
2023-01-17T10:04:04.815Z,4.4
2023-01-17T10:06:25.055Z,4.4
2023-01-17T10:07:35.475Z,4.5
2023-01-17T10:08:45.593Z,4.6
2023-01-17T10:09:55.397Z,4.4
2023-01-17T10:11:05.523Z,4.4
2023-01-17T10:12:15.626Z,4.4
2023-01-17T10:13:25.082Z,4.3
2023-01-17T10:14:34.213Z,4.4
2023-01-17T10:15:44.340Z,4.3
2023-01-17T10:16:54.452Z,4.4
2023-01-17T10:18:04.563Z,4.4
2023-01-17T10:19:14.393Z,4.3
2023-01-17T10:20:24.503Z,4.4
2023-01-17T10:21:34.618Z,4.4
2023-01-17T10:22:44.744Z,4.5
2023-01-17T10:23:55.163Z,4.4
2023-01-17T10:25:03.996Z,4.3
2023-01-17T10:27:23.257Z,4.5
2023-01-17T10:28:33.380Z,4.4
2023-01-17T10:29:43.786Z,4.4
2023-01-17T10:30:53.604Z,4.3
2023-01-17T10:32:03.727Z,4.5
2023-01-17T10:33:13.857Z,4.6
2023-01-17T10:34:23.958Z,4.7
2023-01-17T10:35:34.379Z,4.6
2023-01-17T10:36:44.496Z,4.4
2023-01-17T10:37:54.319Z,4.6
2023-01-17T10:39:03.456Z,4.6
2023-01-17T10:40:12.597Z,4.6
2023-01-17T10:41:23.021Z,4.6
2023-01-17T10:42:33.129Z,4.7
2023-01-17T10:43:42.945Z,4.7
2023-01-17T10:44:53.061Z,4.6
2023-01-17T10:46:03.187Z,4.4
2023-01-17T10:47:13.297Z,4.4
2023-01-17T10:48:23.420Z,4.4
2023-01-17T10:49:33.533Z,4.3
2023-01-17T10:50:43.958Z,4.4
2023-01-17T10:51:53.778Z,4.4
2023-01-17T10:53:03.902Z,4.5
2023-01-17T10:54:14.008Z,4.4
2023-01-17T10:55:24.249Z,4.4
2023-01-17T10:56:34.377Z,4.4
2023-01-17T10:57:44.789Z,4.4
2023-01-17T10:58:54.919Z,4.4
2023-01-17T11:00:04.721Z,4.3
2023-01-17T11:02:24.958Z,4.2
2023-01-17T11:03:35.377Z,4.3
2023-01-17T11:04:45.499Z,4.5
2023-01-17T11:05:55.309Z,4.4
2023-01-17T11:07:05.728Z,4.4
2023-01-17T11:09:25.675Z,4.5
2023-01-17T11:10:34.798Z,4.5
2023-01-17T11:11:44.921Z,4.5
2023-01-17T11:12:55.037Z,4.6
2023-01-17T11:14:05.459Z,4.6
2023-01-17T11:15:15.269Z,4.7
2023-01-17T11:16:25.391Z,4.8
2023-01-17T11:17:35.514Z,4.8
2023-01-17T11:18:45.638Z,4.8
2023-01-17T11:19:55.746Z,4.6
2023-01-17T11:21:05.873Z,4.7
2023-01-17T11:22:15.993Z,4.7
2023-01-17T11:23:26.000Z,4.8
2023-01-17T11:25:46.632Z,4.7
2023-01-17T11:26:55.475Z,4.8
2023-01-17T11:28:04.613Z,4.9
2023-01-17T11:30:24.858Z,4.9
2023-01-17T11:31:34.972Z,4.9
2023-01-17T11:32:45.080Z,4.9
2023-01-17T11:33:55.202Z,5
2023-01-17T11:35:05.626Z,5
2023-01-17T11:36:15.453Z,4.9
2023-01-17T11:37:25.572Z,4.8
2023-01-17T11:38:35.977Z,4.9
2023-01-17T11:39:44.835Z,4.9
2023-01-17T11:40:53.962Z,5
2023-01-17T11:42:04.070Z,5
2023-01-17T11:44:24.322Z,5
2023-01-17T11:45:34.426Z,4.9
2023-01-17T11:46:44.540Z,4.8
2023-01-17T11:47:54.666Z,4.7
2023-01-17T11:49:04.774Z,4.6
2023-01-17T11:50:14.897Z,4.7
2023-01-17T11:51:25.025Z,4.6
2023-01-17T11:52:35.129Z,4.6
2023-01-17T11:53:45.554Z,4.6
2023-01-17T11:54:55.382Z,4.6
2023-01-17T11:56:04.813Z,4.5
2023-01-17T11:57:14.623Z,4.1
2023-01-17T11:58:24.737Z,4.2
2023-01-17T11:59:34.865Z,4.2
2023-01-17T12:00:44.984Z,4.1
2023-01-17T12:01:55.099Z,4.2
2023-01-17T12:03:05.523Z,4.2
2023-01-17T12:04:15.330Z,4.2
2023-01-17T12:05:24.487Z,4.3
2023-01-17T12:06:33.620Z,4.3
2023-01-17T12:07:43.735Z,4.3
2023-01-17T12:08:53.857Z,4.4
2023-01-17T12:10:03.963Z,4.5
2023-01-17T12:11:14.090Z,4.5
2023-01-17T12:12:24.204Z,4.7
2023-01-17T12:13:34.326Z,4.6
2023-01-17T12:14:44.730Z,4.7
2023-01-17T12:15:54.547Z,4.7
2023-01-17T12:17:04.679Z,4.7
2023-01-17T12:18:13.817Z,4.7
2023-01-17T12:19:22.946Z,4.7
2023-01-17T12:20:33.077Z,4.5
2023-01-17T12:21:43.184Z,4.4
2023-01-17T12:22:53.307Z,4.3
2023-01-17T12:24:03.434Z,4.4
2023-01-17T12:25:13.552Z,4.3
2023-01-17T12:26:23.953Z,4.4
2023-01-17T12:28:43.906Z,4.3
2023-01-17T12:29:54.307Z,4.4
2023-01-17T12:31:04.130Z,4.6
2023-01-17T12:32:14.260Z,4.5
2023-01-17T12:33:24.368Z,4.5
2023-01-17T12:34:34.616Z,4.5
2023-01-17T12:35:45.023Z,4.5
2023-01-17T12:36:54.836Z,4.6
2023-01-17T12:38:04.961Z,4.5
2023-01-17T12:40:25.190Z,4.7
2023-01-17T12:41:34.348Z,4.6
2023-01-17T12:42:43.776Z,4.8
2023-01-17T12:43:53.601Z,4.9
2023-01-17T12:45:03.713Z,5
2023-01-17T12:46:13.830Z,5.2
2023-01-17T12:47:24.241Z,5.3
2023-01-17T12:48:34.064Z,5.4
2023-01-17T12:49:44.485Z,5.3
2023-01-17T12:50:54.297Z,5.3
2023-01-17T12:52:04.415Z,5.4
2023-01-17T12:53:14.538Z,5.6
2023-01-17T12:54:24.647Z,5.7
2023-01-17T12:55:35.077Z,5.6
2023-01-17T12:56:44.220Z,5.4
2023-01-17T12:57:53.350Z,5.4
2023-01-17T12:59:03.477Z,5.5
2023-01-17T13:01:23.705Z,5.5
2023-01-17T13:02:33.816Z,5.5
2023-01-17T13:03:43.941Z,5.3
2023-01-17T13:04:54.059Z,5.3
2023-01-17T13:06:04.188Z,5.4
2023-01-17T13:07:14.296Z,5.4
2023-01-17T13:08:24.416Z,5.5
2023-01-17T13:09:34.542Z,5.5
2023-01-17T13:10:44.659Z,5.7
2023-01-17T13:11:54.779Z,5.7
2023-01-17T13:13:03.900Z,5.9
2023-01-17T13:15:24.140Z,5.3
2023-01-17T13:16:33.279Z,5
2023-01-17T13:17:42.418Z,5
2023-01-17T13:18:52.545Z,5.2
2023-01-17T13:20:02.653Z,5.1
2023-01-17T13:21:12.778Z,5.1
2023-01-17T13:22:22.885Z,4.9
2023-01-17T13:23:33.004Z,4.9
2023-01-17T13:24:43.130Z,4.9
2023-01-17T13:25:53.239Z,4.8
2023-01-17T13:27:03.367Z,5
2023-01-17T13:28:13.475Z,4.9
2023-01-17T13:29:22.621Z,4.8
2023-01-17T13:30:31.758Z,4.9
2023-01-17T13:31:41.883Z,5
2023-01-17T13:32:51.990Z,5
2023-01-17T13:34:01.125Z,4.9
2023-01-17T13:35:11.243Z,4.9
2023-01-17T13:36:21.367Z,4.9
2023-01-17T13:37:31.479Z,4.8
2023-01-17T13:38:41.611Z,4.9
2023-01-17T13:39:51.719Z,4.8
2023-01-17T13:41:01.840Z,4.8
2023-01-17T13:42:11.966Z,4.8
2023-01-17T13:43:22.079Z,4.8
2023-01-17T13:44:32.203Z,4.7
2023-01-17T13:45:42.311Z,4.8
2023-01-17T13:46:52.441Z,4.8
2023-01-17T13:48:02.541Z,4.8
2023-01-17T13:49:11.682Z,4.8
2023-01-17T13:50:21.794Z,4.9
2023-01-17T13:51:31.914Z,4.9
2023-01-17T13:52:42.040Z,5
2023-01-17T13:53:52.147Z,5
2023-01-17T13:55:02.271Z,5.1
2023-01-17T13:56:12.399Z,5.1
2023-01-17T13:57:22.501Z,5.1
2023-01-17T13:58:32.619Z,5.2
2023-01-17T13:59:42.744Z,5.2
2023-01-17T14:00:52.865Z,5.2
2023-01-17T14:02:02.974Z,5.1
2023-01-17T14:04:23.209Z,5
2023-01-17T14:05:32.346Z,5
2023-01-17T14:06:42.465Z,5
2023-01-17T14:07:52.589Z,5
2023-01-17T14:09:02.694Z,4.9
2023-01-17T14:10:12.822Z,5
2023-01-17T14:11:22.938Z,5.1
2023-01-17T14:12:33.053Z,5.1
2023-01-17T14:13:43.172Z,5
2023-01-17T14:14:53.286Z,5
2023-01-17T14:16:03.417Z,5
2023-01-17T14:17:13.524Z,5
2023-01-17T14:18:23.648Z,5
2023-01-17T14:19:33.759Z,4.9
2023-01-17T14:20:42.908Z,4.9
2023-01-17T14:21:53.029Z,4.7
2023-01-17T14:23:03.131Z,4.7
2023-01-17T14:24:13.258Z,4.6
2023-01-17T14:25:23.375Z,4.5
2023-01-17T14:26:33.491Z,4.5
2023-01-17T14:27:43.602Z,4.4
2023-01-17T14:28:53.724Z,4.5
2023-01-17T14:30:03.846Z,4.5
2023-01-17T14:31:13.970Z,4.5
2023-01-17T14:32:24.078Z,4.5
2023-01-17T14:33:34.204Z,4.3
2023-01-17T14:34:44.313Z,4.3
2023-01-17T14:35:53.442Z,4.3
2023-01-17T14:37:03.570Z,4.4
2023-01-17T14:39:23.803Z,4.2
2023-01-17T14:40:33.922Z,4.2
2023-01-17T14:41:44.034Z,4.2
2023-01-17T14:42:54.158Z,4.1
2023-01-17T14:44:04.277Z,4
2023-01-17T14:45:14.404Z,4
2023-01-17T14:46:24.511Z,4
2023-01-17T14:47:34.638Z,4
2023-01-17T14:48:44.743Z,4
2023-01-17T14:49:54.864Z,4
2023-01-17T14:51:03.998Z,3.9
2023-01-17T14:52:14.117Z,3.9
2023-01-17T14:53:24.246Z,3.8
2023-01-17T14:54:34.351Z,3.7
2023-01-17T14:55:44.470Z,3.8
2023-01-17T14:56:54.582Z,3.8
2023-01-17T14:59:14.834Z,3.7
2023-01-17T15:00:24.957Z,3.6
2023-01-17T15:01:35.067Z,3.6
2023-01-17T15:02:45.191Z,3.6
2023-01-17T15:03:55.308Z,3.6
2023-01-17T15:05:05.412Z,3.5
2023-01-17T15:06:14.559Z,3.6
2023-01-17T15:07:24.668Z,3.6
2023-01-17T15:08:34.779Z,3.6
2023-01-17T15:09:44.913Z,3.6
2023-01-17T15:10:55.017Z,3.5
2023-01-17T15:12:05.143Z,3.5
2023-01-17T15:14:25.381Z,3.5
2023-01-17T15:15:35.498Z,3.4
2023-01-17T15:16:45.624Z,3.4
2023-01-17T15:17:55.729Z,3.4
2023-01-17T15:19:05.851Z,3.4
2023-01-17T15:20:15.965Z,3.3
2023-01-17T15:21:25.099Z,3.4
2023-01-17T15:22:35.224Z,3.4
2023-01-17T15:23:45.345Z,3.3
2023-01-17T15:24:55.451Z,3.2
2023-01-17T15:26:05.575Z,3.2
2023-01-17T15:27:15.693Z,3.3
2023-01-17T15:28:25.804Z,3.3
2023-01-17T15:29:35.924Z,3.2
2023-01-17T15:30:46.055Z,3.3
2023-01-17T15:31:56.160Z,3.3
2023-01-17T15:33:06.286Z,3.2
2023-01-17T15:34:16.404Z,3.1
2023-01-17T15:35:26.516Z,3.1
2023-01-17T15:36:35.652Z,3.1
2023-01-17T15:37:45.776Z,3.1
2023-01-17T15:38:55.902Z,3
2023-01-17T15:40:06.021Z,3.1
2023-01-17T15:41:16.128Z,3
2023-01-17T15:42:26.244Z,3
2023-01-17T15:43:36.370Z,3.1
2023-01-17T15:44:46.478Z,3.1
2023-01-17T15:45:56.598Z,3.1
2023-01-17T15:47:06.727Z,3.1
2023-01-17T15:48:16.851Z,3.1
2023-01-17T15:49:26.954Z,3.1
2023-01-17T15:50:37.073Z,3.1
2023-01-17T15:51:46.214Z,3.2
2023-01-17T15:52:56.328Z,3.2
2023-01-17T15:54:06.445Z,3.1
2023-01-17T15:55:16.571Z,3.1
2023-01-17T15:56:26.672Z,3.2
2023-01-17T15:57:36.795Z,3.2
2023-01-17T15:58:46.922Z,3.2
2023-01-17T15:59:57.032Z,3.2
2023-01-17T16:01:07.158Z,3.3
2023-01-17T16:02:17.276Z,3.3
2023-01-17T16:03:27.399Z,3.2
2023-01-17T16:04:37.505Z,3.2
2023-01-17T16:05:47.626Z,3.2
2023-01-17T16:06:56.764Z,3.2
2023-01-17T16:08:06.892Z,3.3
2023-01-17T16:09:17.003Z,3.3
2023-01-17T16:10:27.121Z,3.2
2023-01-17T16:11:37.240Z,3.1
2023-01-17T16:12:47.353Z,3.1
2023-01-17T16:13:57.480Z,3.1
2023-01-17T16:15:07.585Z,3.2
2023-01-17T16:16:17.708Z,3.1
2023-01-17T16:17:27.831Z,3.1
2023-01-17T16:18:37.964Z,3.1
2023-01-17T16:19:48.077Z,3
2023-01-17T16:20:58.198Z,3
2023-01-17T16:22:07.321Z,3
2023-01-17T16:23:17.441Z,3
2023-01-17T16:24:27.557Z,3
2023-01-17T16:25:37.679Z,3.1
2023-01-17T16:26:47.793Z,3.1
2023-01-17T16:27:57.919Z,3.1
2023-01-17T16:29:08.028Z,3
2023-01-17T16:30:18.156Z,3
2023-01-17T16:31:28.272Z,2.9
2023-01-17T16:32:38.396Z,2.8
2023-01-17T16:33:48.517Z,2.7
2023-01-17T16:34:58.620Z,2.7
2023-01-17T16:36:08.741Z,2.6
2023-01-17T16:37:17.872Z,2.5
2023-01-17T16:38:27.990Z,2.6
2023-01-17T16:39:38.119Z,2.5
2023-01-17T16:40:48.235Z,2.5
2023-01-17T16:41:58.353Z,2.4
2023-01-17T16:43:08.468Z,2.4
2023-01-17T16:44:18.592Z,2.4
2023-01-17T16:45:28.704Z,2.3
2023-01-17T16:46:38.823Z,2.4
2023-01-17T16:47:48.945Z,2.4
2023-01-17T16:48:59.063Z,2.4
2023-01-17T16:50:09.181Z,2.3
2023-01-17T16:51:19.305Z,2.3